Time;durP1;ratioP1;P1;durP2;ratioP2;P2;SDS_P1;SDS_P2;PMS_P1;PMS_P2;Temp;Humidity;BMP_temperature;BMP_pressure;BME280_temperature;BME280_humidity;BME280_pressure;Samples;Min_cycle;Max_cycle;Signal;HPM_P1;HPM_P2
2022/07/24 00:01:14;;;;;;;4.70;3.60;;;;;;;20.64;100.00;99414.94;5111349;28;20232;-79
2022/07/24 00:03:42;;;;;;;4.00;3.40;;;;;;;20.57;100.00;99415.59;5115423;28;20215;-79
2022/07/24 00:06:13;;;;;;;5.95;3.72;;;;;;;20.55;100.00;99419.41;5115679;28;20650;-78
2022/07/24 00:08:41;;;;;;;3.77;3.33;;;;;;;20.72;100.00;99415.84;5111489;28;20190;-79
2022/07/24 00:11:09;;;;;;;4.80;3.63;;;;;;;20.69;100.00;99412.66;5115426;28;20194;-78
2022/07/24 00:13:37;;;;;;;5.10;3.57;;;;;;;20.44;100.00;99417.81;5115421;28;20550;-79
2022/07/24 00:16:06;;;;;;;4.40;4.00;;;;;;;20.30;100.00;99408.41;5111519;28;20214;-79
2022/07/24 00:18:35;;;;;;;7.03;3.92;;;;;;;20.00;100.00;99412.31;5115185;28;20195;-78
2022/07/24 00:21:05;;;;;;;6.57;3.70;;;;;;;19.96;100.00;99413.59;5115379;28;20202;-79
2022/07/24 00:23:36;;;;;;;4.60;3.80;;;;;;;20.09;100.00;99410.56;5111157;28;20293;-79
2022/07/24 00:26:04;;;;;;;4.00;3.60;;;;;;;20.07;100.00;99412.53;5115160;28;20643;-79
2022/07/24 00:28:32;;;;;;;4.13;3.73;;;;;;;20.10;100.00;99414.94;5112214;28;20199;-79
2022/07/24 00:31:01;;;;;;;5.13;3.40;;;;;;;20.16;100.00;99411.63;5117334;27;20195;-79
2022/07/24 00:33:29;;;;;;;5.10;3.77;;;;;;;20.14;100.00;99404.72;5116792;27;20199;-79
2022/07/24 00:35:58;;;;;;;4.03;3.63;;;;;;;20.12;100.00;99404.03;5114516;28;20278;-79
2022/07/24 00:38:26;;;;;;;4.87;3.40;;;;;;;20.12;100.00;99404.88;5113684;28;20209;-78
2022/07/24 00:40:56;;;;;;;3.97;3.50;;;;;;;20.14;100.00;99410.09;5113783;28;20195;-78
2022/07/24 00:43:24;;;;;;;5.73;3.77;;;;;;;20.09;100.00;99405.19;5114561;28;20204;-79
2022/07/24 00:45:52;;;;;;;5.33;4.03;;;;;;;19.93;100.00;99405.00;5114608;28;20245;-79
2022/07/24 00:48:21;;;;;;;6.10;3.50;;;;;;;19.84;100.00;99405.91;5107409;28;20199;-79
2022/07/24 00:50:49;;;;;;;4.10;3.70;;;;;;;19.78;100.00;99409.19;5113268;27;20234;-79
2022/07/24 00:53:18;;;;;;;5.60;3.90;;;;;;;19.63;100.00;99412.41;5112030;28;20187;-79
2022/07/24 00:55:46;;;;;;;5.73;3.97;;;;;;;19.58;100.00;99406.63;5114380;28;20230;-78
2022/07/24 00:58:15;;;;;;;4.70;4.00;;;;;;;19.53;100.00;99403.53;5109633;28;20202;-79
2022/07/24 01:00:44;;;;;;;4.97;3.67;;;;;;;19.38;100.00;99407.69;5114309;28;20213;-79
2022/07/24 01:03:12;;;;;;;4.00;3.60;;;;;;;19.39;100.00;99404.00;5113866;28;20283;-79
2022/07/24 01:05:41;;;;;;;5.17;3.90;;;;;;;19.34;100.00;99403.59;5091615;28;20223;-79
2022/07/24 01:08:10;;;;;;;6.77;3.80;;;;;;;19.29;100.00;99395.97;5080789;28;20211;-79
2022/07/24 01:10:41;;;;;;;5.57;3.83;;;;;;;19.21;100.00;99403.94;5090652;28;20196;-79
2022/07/24 01:13:11;;;;;;;4.57;4.07;;;;;;;19.15;100.00;99399.16;5086222;28;20196;-79
2022/07/24 01:15:40;;;;;;;4.63;4.13;;;;;;;19.20;100.00;99401.38;5088825;28;20191;-79
2022/07/24 01:18:09;;;;;;;5.47;4.13;;;;;;;19.04;100.00;99393.97;5091978;28;20200;-79
2022/07/24 01:20:39;;;;;;;4.30;3.87;;;;;;;19.14;100.00;99395.63;5088884;28;20279;-78
2022/07/24 01:23:08;;;;;;;7.93;4.43;;;;;;;19.11;100.00;99389.72;5094352;28;20306;-78
2022/07/24 01:25:36;;;;;;;4.43;3.60;;;;;;;19.08;100.00;99392.66;5111690;28;20217;-78
2022/07/24 01:28:04;;;;;;;6.73;3.83;;;;;;;19.24;100.00;99390.22;5113919;28;20186;-78
2022/07/24 01:30:33;;;;;;;7.37;3.33;;;;;;;19.18;100.00;99388.09;5116321;27;20238;-79
2022/07/24 01:33:03;;;;;;;3.60;3.30;;;;;;;19.46;100.00;99391.66;5113973;28;20202;-78
2022/07/24 01:35:31;;;;;;;5.70;3.50;;;;;;;19.29;100.00;99387.91;5113515;28;20195;-78
2022/07/24 01:38:05;;;;;;;6.63;4.17;;;;;;;19.36;100.00;99385.50;5115323;27;20207;-78
2022/07/24 01:40:33;;;;;;;5.50;3.90;;;;;;;19.39;100.00;99386.03;5113708;28;20245;-78
2022/07/24 01:43:01;;;;;;;7.87;4.37;;;;;;;19.40;100.00;99394.97;5111480;28;20274;-78
2022/07/24 01:45:30;;;;;;;3.83;3.37;;;;;;;19.28;100.00;99388.06;5113564;28;20215;-78
2022/07/24 01:47:59;;;;;;;3.97;3.30;;;;;;;19.43;100.00;99391.97;5109900;28;20183;-79
2022/07/24 01:50:27;;;;;;;4.80;3.40;;;;;;;19.28;100.00;99388.06;5113267;28;20241;-78
2022/07/24 01:52:55;;;;;;;5.93;3.63;;;;;;;19.23;100.00;99388.53;5109718;28;20199;-79
2022/07/24 01:55:25;;;;;;;5.60;3.67;;;;;;;18.98;100.00;99389.16;5107937;28;20254;-79
2022/07/24 01:57:53;;;;;;;6.20;3.70;;;;;;;18.97;100.00;99392.84;5110517;28;20278;-78
2022/07/24 02:00:21;;;;;;;6.83;3.80;;;;;;;18.92;100.00;99398.66;5103362;28;20222;-79
2022/07/24 02:02:50;;;;;;;4.73;3.70;;;;;;;18.88;100.00;99399.94;5113294;28;20195;-78
2022/07/24 02:05:18;;;;;;;5.57;3.77;;;;;;;18.89;100.00;99398.94;5107337;28;20222;-78
2022/07/24 02:07:56;;;;;;;5.53;3.90;;;;;;;18.78;100.00;99393.75;5112023;28;20191;-79
2022/07/24 02:10:27;;;;;;;7.57;3.90;;;;;;;18.84;100.00;99395.88;5113340;28;20199;-79
2022/07/24 02:12:56;;;;;;;5.17;4.40;;;;;;;18.68;100.00;99388.41;5112995;28;20234;-79
2022/07/24 02:15:25;;;;;;;5.53;3.90;;;;;;;18.59;100.00;99394.59;5112785;28;20232;-79
2022/07/24 02:17:57;;;;;;;4.30;3.90;;;;;;;18.53;100.00;99395.19;5113178;28;20201;-78
2022/07/24 02:20:27;;;;;;;5.43;4.17;;;;;;;18.40;100.00;99395.47;5112342;28;20199;-78
2022/07/24 02:22:56;;;;;;;5.93;4.03;;;;;;;18.42;100.00;99396.16;5109153;28;20191;-78
2022/07/24 02:25:26;;;;;;;5.40;4.23;;;;;;;18.32;100.00;99403.34;5113444;28;20313;-78
2022/07/24 02:27:54;;;;;;;5.23;4.57;;;;;;;18.35;100.00;99402.25;5113247;28;20257;-78
2022/07/24 02:30:24;;;;;;;5.33;4.80;;;;;;;18.13;100.00;99398.84;5112877;28;20285;-78
2022/07/24 02:32:52;;;;;;;4.87;4.33;;;;;;;18.24;100.00;99404.09;5094214;28;20235;-78
2022/07/24 02:35:21;;;;;;;5.47;4.63;;;;;;;18.22;100.00;99402.50;5115591;27;20207;-78
2022/07/24 02:37:49;;;;;;;6.53;4.60;;;;;;;18.10;100.00;99400.97;5108144;28;20198;-78
2022/07/24 02:40:17;;;;;;;5.20;4.70;;;;;;;17.83;100.00;99399.78;5111930;28;20199;-78
2022/07/24 02:42:48;;;;;;;8.90;4.97;;;;;;;18.07;100.00;99401.25;5112876;28;20582;-79
2022/07/24 02:45:17;;;;;;;5.73;4.77;;;;;;;18.06;100.00;99397.72;5110318;28;20222;-79
2022/07/24 02:47:49;;;;;;;5.00;4.13;;;;;;;18.06;100.00;99411.13;5112746;28;20273;-79
2022/07/24 02:50:19;;;;;;;5.33;4.83;;;;;;;18.03;100.00;99401.50;5109795;28;20203;-79
2022/07/24 02:52:47;;;;;;;5.07;4.50;;;;;;;17.80;100.00;99410.78;5106627;28;20322;-78
2022/07/24 02:55:15;;;;;;;7.03;4.83;;;;;;;17.87;100.00;99411.09;5112536;28;20194;-78
2022/07/24 02:57:44;;;;;;;5.13;4.63;;;;;;;17.87;100.00;99413.78;5110185;28;20206;-78
2022/07/24 03:00:17;;;;;;;5.47;4.80;;;;;;;17.89;100.00;99418.00;5112807;28;20195;-78
2022/07/24 03:02:46;;;;;;;8.97;5.10;;;;;;;17.88;100.00;99416.31;5109837;28;20270;-78
2022/07/24 03:05:15;;;;;;;6.30;4.57;;;;;;;17.65;100.00;99417.47;5108693;28;20215;-79
2022/07/24 03:07:43;;;;;;;8.03;4.83;;;;;;;17.64;100.00;99416.63;5111349;28;20206;-78
2022/07/24 03:10:12;;;;;;;5.77;5.20;;;;;;;17.67;100.00;99411.03;5112648;28;20195;-78
2022/07/24 03:12:42;;;;;;;5.47;4.97;;;;;;;17.58;100.00;99417.19;5112473;28;20268;-79
2022/07/24 03:15:11;;;;;;;5.20;4.63;;;;;;;17.60;100.00;99417.91;5109008;28;20206;-78
2022/07/24 03:17:49;;;;;;;6.17;5.17;;;;;;;17.62;100.00;99413.25;5112908;28;20206;-79
2022/07/24 03:20:17;;;;;;;9.53;4.97;;;;;;;17.66;100.00;99419.16;5115269;27;20318;-79
2022/07/24 03:22:46;;;;;;;6.67;5.30;;;;;;;17.62;100.00;99423.13;5108608;28;20199;-78
2022/07/24 03:25:14;;;;;;;8.47;5.37;;;;;;;17.70;100.00;99410.78;5112594;28;20267;-78
2022/07/24 03:27:43;;;;;;;7.00;5.33;;;;;;;17.72;100.00;99411.47;5114005;28;20202;-78
2022/07/24 03:30:12;;;;;;;7.67;5.67;;;;;;;17.48;100.00;99416.31;5116282;28;20195;-78
2022/07/24 03:32:42;;;;;;;7.60;5.20;;;;;;;17.63;100.00;99414.94;5113610;27;20203;-78
2022/07/24 03:35:11;;;;;;;7.37;5.20;;;;;;;17.49;100.00;99423.38;5094200;28;20195;-78
2022/07/24 03:37:39;;;;;;;7.93;5.50;;;;;;;17.53;100.00;99426.63;5111748;28;20374;-79
2022/07/24 03:40:09;;;;;;;7.07;5.20;;;;;;;17.49;100.00;99431.41;5116242;28;20265;-78
2022/07/24 03:42:37;;;;;;;6.77;4.90;;;;;;;17.45;100.00;99428.13;5113106;28;20205;-79
2022/07/24 03:45:07;;;;;;;7.07;5.03;;;;;;;17.44;100.00;99431.78;5116067;27;20195;-79
2022/07/24 03:47:35;;;;;;;9.13;5.57;;;;;;;17.50;100.00;99432.25;5072513;28;21080;-78
2022/07/24 03:50:06;;;;;;;8.53;5.10;;;;;;;17.60;100.00;99431.31;5072779;28;20203;-78
2022/07/24 03:52:34;;;;;;;5.87;5.27;;;;;;;17.54;100.00;99425.63;5068940;28;20196;-78
2022/07/24 03:55:04;;;;;;;7.00;4.80;;;;;;;17.63;100.00;99424.81;5073017;28;20254;-78
2022/07/24 03:57:32;;;;;;;6.43;4.97;;;;;;;17.63;100.00;99432.84;5072977;28;20220;-78
2022/07/24 04:00:00;;;;;;;8.47;5.13;;;;;;;17.58;100.00;99429.75;5075672;28;20660;-78
2022/07/24 04:02:29;;;;;;;6.73;5.20;;;;;;;17.58;100.00;99433.28;5072749;28;20200;-79
2022/07/24 04:04:57;;;;;;;5.80;5.20;;;;;;;17.55;100.00;99425.47;5072969;28;20366;-78
2022/07/24 04:07:27;;;;;;;6.57;5.00;;;;;;;17.56;100.00;99431.69;5068799;28;20251;-79
2022/07/24 04:09:55;;;;;;;5.87;4.93;;;;;;;17.62;100.00;99429.31;5072747;28;20204;-78
2022/07/24 04:12:23;;;;;;;6.13;5.37;;;;;;;17.61;100.00;99432.16;5096252;28;20641;-78
2022/07/24 04:14:52;;;;;;;6.20;5.60;;;;;;;17.37;100.00;99429.78;5115705;28;20634;-78
2022/07/24 04:17:20;;;;;;;6.37;4.97;;;;;;;17.47;100.00;99436.06;5115240;28;20191;-78
2022/07/24 04:19:48;;;;;;;7.33;5.53;;;;;;;17.45;100.00;99438.84;5110487;28;20218;-78
2022/07/24 04:22:16;;;;;;;6.20;5.40;;;;;;;17.52;100.00;99439.16;5114122;28;20203;-78
2022/07/24 04:24:50;;;;;;;5.27;4.60;;;;;;;17.60;100.00;99433.97;5115396;28;20191;-78
2022/07/24 04:27:18;;;;;;;6.33;5.47;;;;;;;17.60;100.00;99430.44;5115136;28;20303;-78
2022/07/24 04:29:46;;;;;;;8.50;5.67;;;;;;;17.58;100.00;99433.28;5115159;28;20202;-78
2022/07/24 04:32:17;;;;;;;5.57;4.93;;;;;;;17.64;100.00;99430.03;5115158;28;20240;-78
2022/07/24 04:34:45;;;;;;;5.40;4.90;;;;;;;17.69;100.00;99427.84;5115103;28;20251;-79
2022/07/24 04:37:13;;;;;;;7.43;5.37;;;;;;;17.62;100.00;99428.47;5116162;27;20201;-78
2022/07/24 04:39:41;;;;;;;7.37;5.30;;;;;;;17.56;100.00;99429.84;5107197;28;20205;-79
2022/07/24 04:42:11;;;;;;;6.13;5.40;;;;;;;17.55;100.00;99425.47;5114587;28;20195;-78
2022/07/24 04:44:39;;;;;;;6.87;4.80;;;;;;;17.63;100.00;99428.34;5110107;28;20195;-78
2022/07/24 04:47:07;;;;;;;6.93;5.20;;;;;;;17.61;100.00;99426.78;5112439;28;20300;-78
2022/07/24 04:49:36;;;;;;;6.50;5.07;;;;;;;17.70;100.00;99415.28;5112303;28;20215;-78
2022/07/24 04:52:05;;;;;;;6.73;5.43;;;;;;;17.83;100.00;99423.91;5113330;28;20250;-78
2022/07/24 04:54:34;;;;;;;5.80;5.20;;;;;;;17.86;100.00;99426.34;5112530;28;20688;-78
2022/07/24 04:57:02;;;;;;;5.17;4.60;;;;;;;17.99;100.00;99426.06;5114583;28;20191;-78
2022/07/24 04:59:33;;;;;;;6.23;4.77;;;;;;;18.03;100.00;99431.00;5113444;28;20207;-78
2022/07/24 05:02:02;;;;;;;6.43;4.67;;;;;;;18.03;100.00;99430.16;5112431;28;20206;-78
2022/07/24 05:04:31;;;;;;;5.43;4.77;;;;;;;17.97;100.00;99439.63;5095683;28;20199;-79
2022/07/24 05:06:59;;;;;;;5.57;4.97;;;;;;;18.08;100.00;99443.16;5113149;28;20249;-78
2022/07/24 05:09:28;;;;;;;6.60;4.70;;;;;;;18.10;100.00;99441.19;5108945;28;20210;-78
2022/07/24 05:11:56;;;;;;;5.53;4.83;;;;;;;18.12;100.00;99444.56;5114279;28;20266;-78
2022/07/24 05:14:24;;;;;;;7.13;4.63;;;;;;;18.21;100.00;99438.38;5108824;28;20195;-79
2022/07/24 05:16:54;;;;;;;5.00;4.33;;;;;;;18.45;100.00;99449.53;5114300;28;20204;-78
2022/07/24 05:19:22;;;;;;;7.53;5.20;;;;;;;18.38;100.00;99443.03;5112065;28;20187;-78
2022/07/24 05:21:51;;;;;;;6.27;4.80;;;;;;;18.52;100.00;99445.28;5108824;28;20195;-79
2022/07/24 05:24:19;;;;;;;6.57;4.93;;;;;;;18.56;100.00;99437.81;5111146;28;20230;-78
2022/07/24 05:26:48;;;;;;;5.17;4.67;;;;;;;18.64;100.00;99443.31;5107493;28;20222;-78
2022/07/24 05:29:17;;;;;;;6.17;4.83;;;;;;;18.60;100.00;99431.16;5106899;28;20653;-78
2022/07/24 05:31:46;;;;;;;6.47;5.17;;;;;;;18.57;100.00;99431.47;5113786;28;20199;-78
2022/07/24 05:34:16;;;;;;;5.77;5.03;;;;;;;18.72;100.00;99422.03;5113854;28;20187;-79
2022/07/24 05:36:44;;;;;;;5.17;4.67;;;;;;;18.70;100.00;99423.97;5111710;28;20205;-78
2022/07/24 05:39:12;;;;;;;5.27;4.63;;;;;;;18.84;100.00;99430.75;5112803;28;20192;-78
2022/07/24 05:41:41;;;;;;;5.93;5.00;;;;;;;18.84;100.00;99423.56;5115445;27;20191;-78
2022/07/24 05:44:09;;;;;;;6.27;5.00;;;;;;;18.83;100.00;99431.75;5110843;28;20657;-79
2022/07/24 05:46:37;;;;;;;6.57;4.77;;;;;;;18.97;100.00;99425.91;5113645;28;20190;-78
2022/07/24 05:49:06;;;;;;;6.57;5.00;;;;;;;19.07;100.00;99429.41;5111102;28;20198;-79
2022/07/24 05:51:36;;;;;;;5.10;4.60;;;;;;;19.01;100.00;99429.13;5106152;28;20231;-79
2022/07/24 05:54:04;;;;;;;4.73;4.33;;;;;;;19.20;100.00;99420.19;5112480;28;20223;-78
2022/07/24 05:56:40;;;;;;;5.30;4.53;;;;;;;19.33;100.00;99428.78;5078975;28;20190;-79
2022/07/24 05:59:09;;;;;;;7.23;4.57;;;;;;;19.39;100.00;99429.00;5113124;28;20195;-78
2022/07/24 06:01:37;;;;;;;4.80;4.30;;;;;;;19.38;100.00;99418.41;5115598;27;20225;-78
2022/07/24 06:04:05;;;;;;;6.90;5.10;;;;;;;19.40;100.00;99428.06;5111381;28;20215;-79
2022/07/24 06:06:33;;;;;;;6.73;4.63;;;;;;;19.60;100.00;99428.84;5112018;28;20202;-78
2022/07/24 06:09:04;;;;;;;5.47;4.40;;;;;;;19.63;100.00;99431.22;5112150;28;20195;-78
2022/07/24 06:11:33;;;;;;;5.00;4.50;;;;;;;19.76;100.00;99428.16;5113553;28;20183;-78
2022/07/24 06:14:01;;;;;;;8.77;4.53;;;;;;;19.77;100.00;99431.69;5113077;28;20202;-78
2022/07/24 06:16:30;;;;;;;4.87;4.37;;;;;;;19.94;100.00;99430.91;5111217;28;20195;-79
2022/07/24 06:18:58;;;;;;;4.57;4.17;;;;;;;20.02;100.00;99421.06;5113014;28;20205;-79
2022/07/24 06:21:27;;;;;;;6.47;4.27;;;;;;;20.25;100.00;99429.53;5101169;28;20195;-79
2022/07/24 06:23:55;;;;;;;6.43;4.17;;;;;;;20.29;100.00;99422.03;5111978;28;20195;-79
2022/07/24 06:26:25;;;;;;;4.30;3.90;;;;;;;20.38;100.00;99426.50;5110374;28;20669;-79
2022/07/24 06:28:53;;;;;;;5.30;3.90;;;;;;;20.53;100.00;99424.09;5109021;28;20226;-79
2022/07/24 06:31:21;;;;;;;4.90;3.63;;;;;;;20.53;100.00;99422.25;5105476;28;20198;-79
2022/07/24 06:33:50;;;;;;;7.30;4.00;;;;;;;20.54;100.00;99423.94;5111972;28;20187;-79
2022/07/24 06:36:18;;;;;;;6.17;3.67;;;;;;;20.48;100.00;99421.91;5108585;28;20247;-79
2022/07/24 06:38:48;;;;;;;5.80;3.90;;;;;;;20.61;100.00;99409.88;5110788;28;20191;-79
2022/07/24 06:41:17;;;;;;;5.03;3.97;;;;;;;20.85;100.00;99410.09;5116496;27;20197;-79
2022/07/24 06:43:46;;;;;;;4.47;3.80;;;;;;;20.91;100.00;99412.13;5110801;28;20195;-78
2022/07/24 06:46:15;;;;;;;5.20;4.17;;;;;;;20.96;100.00;99412.50;5113034;28;20374;-79
2022/07/24 06:48:43;;;;;;;4.60;3.60;;;;;;;21.00;100.00;99408.47;5111767;28;20207;-79
2022/07/24 06:51:11;;;;;;;4.57;3.70;;;;;;;21.10;100.00;99406.53;5112402;28;20292;-79
2022/07/24 06:53:43;;;;;;;4.23;3.67;;;;;;;21.02;100.00;99403.78;5109154;28;20206;-79
2022/07/24 06:56:11;;;;;;;4.27;3.50;;;;;;;21.19;100.00;99399.34;5112694;27;20206;-78
2022/07/24 06:58:39;;;;;;;4.00;3.60;;;;;;;21.07;100.00;99401.47;5106711;28;20210;-78
2022/07/24 07:01:09;;;;;;;4.77;3.50;;;;;;;21.41;100.00;99403.34;5115010;27;20255;-79
2022/07/24 07:03:37;;;;;;;4.13;3.72;;;;;;;21.59;100.00;99404.09;5110786;28;20202;-79
2022/07/24 07:06:06;;;;;;;4.45;3.58;;;;;;;21.72;100.00;99398.28;5108939;28;20210;-79
2022/07/24 07:08:35;;;;;;;6.50;3.40;;;;;;;21.70;100.00;99392.19;5094329;28;20309;-79
2022/07/24 07:11:03;;;;;;;6.65;3.60;;;;;;;21.70;100.00;99406.50;5113811;28;20253;-78
2022/07/24 07:13:31;;;;;;;4.80;3.60;;;;;;;21.77;100.00;99392.38;5116688;28;20637;-78
2022/07/24 07:15:59;;;;;;;4.65;4.03;;;;;;;22.13;100.00;99398.41;5116115;27;20195;-79
2022/07/24 07:18:29;;;;;;;3.45;3.13;;;;;;;22.26;100.00;99387.94;5116574;28;20191;-79
2022/07/24 07:20:57;;;;;;;3.90;3.40;;;;;;;22.41;100.00;99391.69;5111601;28;20191;-79
2022/07/24 07:23:27;;;;;;;4.85;3.33;;;;;;;22.70;100.00;99395.72;5115383;28;20189;-79
2022/07/24 07:25:58;;;;;;;4.53;3.83;;;;;;;22.38;100.00;99393.84;5113617;27;20195;-79
2022/07/24 07:28:26;;;;;;;4.43;3.20;;;;;;;22.65;100.00;99393.53;5110777;28;20221;-78
2022/07/24 07:30:54;;;;;;;5.80;3.60;;;;;;;22.75;100.00;99396.03;5116063;28;20203;-79
2022/07/24 07:33:23;;;;;;;3.72;3.35;;;;;;;22.81;100.00;99395.38;5116096;28;20191;-79
2022/07/24 07:35:54;;;;;;;4.03;3.55;;;;;;;22.74;100.00;99392.50;5113514;28;20191;-79
2022/07/24 07:38:22;;;;;;;3.90;3.50;;;;;;;22.76;100.00;99398.56;5114859;28;20276;-79
2022/07/24 07:40:54;;;;;;;4.45;3.63;;;;;;;22.92;100.00;99400.44;5116396;27;20203;-79
2022/07/24 07:43:22;;;;;;;3.22;2.92;;;;;;;23.09;100.00;99402.13;5110491;28;20684;-79
2022/07/24 07:45:51;;;;;;;7.50;4.00;;;;;;;23.07;100.00;99404.16;5112974;28;20195;-79
2022/07/24 07:48:20;;;;;;;4.53;3.85;;;;;;;23.27;100.00;99396.50;5111206;28;20217;-78
2022/07/24 07:50:48;;;;;;;4.20;3.60;;;;;;;23.39;100.00;99397.81;5112991;28;20227;-78
2022/07/24 07:53:18;;;;;;;4.22;3.45;;;;;;;23.51;100.00;99395.56;5114294;28;20204;-79
2022/07/24 07:55:51;;;;;;;5.10;3.67;;;;;;;23.76;100.00;99400.91;5115582;28;20203;-79
2022/07/24 07:58:19;;;;;;;5.88;3.80;;;;;;;24.15;100.00;99401.69;5110450;28;20195;-78
2022/07/24 08:00:48;;;;;;;4.95;3.45;;;;;;;24.35;100.00;99401.25;5115810;28;20198;-78
2022/07/24 08:03:17;;;;;;;5.32;3.40;;;;;;;24.06;100.00;99397.34;5110217;28;20206;-78
2022/07/24 08:05:50;;;;;;;3.83;3.53;;;;;;;24.32;100.00;99398.88;5115876;27;20199;-79
2022/07/24 08:08:27;;;;;;;4.28;3.53;;;;;;;24.59;100.00;99402.91;5114275;28;20233;-79
2022/07/24 08:10:55;;;;;;;3.97;3.58;;;;;;;24.82;100.00;99395.59;5115133;28;20674;-78
2022/07/24 08:13:24;;;;;;;4.03;3.63;;;;;;;25.11;98.39;99400.25;5114350;28;20222;-79
2022/07/24 08:15:52;;;;;;;3.75;3.33;;;;;;;25.31;97.72;99392.41;5106394;28;20198;-79
2022/07/24 08:18:20;;;;;;;5.63;3.72;;;;;;;24.90;99.95;99395.53;5114986;28;20243;-78
2022/07/24 08:20:49;;;;;;;4.50;3.40;;;;;;;25.33;98.11;99395.75;5110605;28;20244;-79
2022/07/24 08:23:17;;;;;;;5.57;3.30;;;;;;;25.36;96.95;99389.97;5113881;28;20206;-79
2022/07/24 08:25:46;;;;;;;3.70;3.40;;;;;;;25.52;95.64;99389.75;5115305;28;20275;-79
2022/07/24 08:28:15;;;;;;;3.97;3.33;;;;;;;25.73;89.97;99393.59;5115107;28;20218;-79
2022/07/24 08:30:43;;;;;;;5.18;3.35;;;;;;;25.78;88.86;99394.72;5114950;28;20274;-79
2022/07/24 08:33:12;;;;;;;4.03;3.60;;;;;;;25.92;87.62;99385.69;5111662;28;20293;-79
2022/07/24 08:35:40;;;;;;;4.72;4.13;;;;;;;25.88;87.10;99378.16;5110004;28;20207;-79
2022/07/24 08:38:09;;;;;;;5.28;3.83;;;;;;;26.17;85.59;99378.03;5113507;28;20286;-79
2022/07/24 08:40:39;;;;;;;4.78;3.45;;;;;;;26.32;83.87;99380.69;5110739;28;20199;-79
2022/07/24 08:43:10;;;;;;;4.47;3.55;;;;;;;26.12;83.26;99379.66;5113559;28;20203;-78
2022/07/24 08:45:40;;;;;;;4.63;3.78;;;;;;;25.62;84.29;99376.75;5112499;28;20209;-79
2022/07/24 08:48:10;;;;;;;4.57;3.38;;;;;;;25.39;85.34;99384.19;5111909;28;20314;-79
2022/07/24 08:50:42;;;;;;;4.07;3.75;;;;;;;25.98;78.54;99381.38;5109918;28;20230;-79
2022/07/24 08:53:11;;;;;;;5.40;3.78;;;;;;;26.21;78.38;99382.03;5110442;28;20278;-78
2022/07/24 08:55:40;;;;;;;4.45;3.92;;;;;;;26.50;75.70;99382.97;5114722;28;20198;-79
2022/07/24 08:58:09;;;;;;;4.40;3.60;;;;;;;26.85;72.92;99378.47;5114373;28;20194;-78
2022/07/24 09:00:37;;;;;;;4.20;3.58;;;;;;;27.01;69.02;99370.00;5114716;28;20191;-79
2022/07/24 09:03:06;;;;;;;6.13;3.45;;;;;;;27.05;68.78;99370.50;5114576;28;20190;-78
2022/07/24 09:05:36;;;;;;;4.35;3.92;;;;;;;27.13;66.80;99372.22;5114512;28;20199;-79
2022/07/24 09:08:09;;;;;;;5.13;4.03;;;;;;;26.80;68.75;99375.50;5113488;28;20195;-78
2022/07/24 09:10:37;;;;;;;5.22;3.80;;;;;;;26.32;70.92;99368.97;5114576;28;20685;-78
2022/07/24 09:13:18;;;;;;;4.40;4.00;;;;;;;26.27;73.55;99369.56;5111922;28;20195;-79
2022/07/24 09:15:49;;;;;;;4.00;3.60;;;;;;;26.31;76.59;99372.72;5109688;28;20697;-78
2022/07/24 09:18:29;;;;;;;4.43;4.00;;;;;;;26.23;76.97;99370.97;5113840;28;20625;-78
2022/07/24 09:20:58;;;;;;;4.82;3.80;;;;;;;26.19;75.59;99367.81;5114336;28;20191;-79
2022/07/24 09:23:27;;;;;;;6.78;4.13;;;;;;;26.56;74.11;99370.50;5112748;27;20214;-78
2022/07/24 09:25:56;;;;;;;5.75;3.92;;;;;;;26.94;71.87;99373.72;5113830;28;20265;-79
2022/07/24 09:28:26;;;;;;;4.43;4.03;;;;;;;27.09;70.78;99366.31;5104752;28;20199;-79
2022/07/24 09:31:02;;;;;;;4.30;3.65;;;;;;;27.45;69.38;99368.00;5109575;28;20183;-79
2022/07/24 09:33:37;;;;;;;4.82;3.90;;;;;;;27.52;67.81;99361.53;5114113;28;20281;-78
2022/07/24 09:36:13;;;;;;;4.47;4.07;;;;;;;27.87;65.85;99364.22;5115388;27;20194;-78
2022/07/24 09:38:47;;;;;;;4.32;3.92;;;;;;;27.78;65.95;99358.09;5110480;27;20198;-79
2022/07/24 09:41:21;;;;;;;5.28;3.97;;;;;;;27.80;65.59;99363.38;5111201;28;20199;-79
2022/07/24 09:44:00;;;;;;;4.30;3.90;;;;;;;28.05;64.03;99358.19;5113945;28;20202;-78
2022/07/24 09:46:29;;;;;;;4.20;3.80;;;;;;;28.32;63.73;99348.22;5113460;28;20252;-79
2022/07/24 09:48:59;;;;;;;6.55;4.13;;;;;;;28.27;63.84;99359.69;5110713;28;20218;-79
2022/07/24 09:51:30;;;;;;;4.55;4.00;;;;;;;28.08;64.76;99347.69;5114834;27;20248;-79
2022/07/24 09:54:00;;;;;;;4.53;4.13;;;;;;;27.82;64.91;99347.66;5112043;28;20190;-79
2022/07/24 09:56:30;;;;;;;4.20;3.75;;;;;;;28.35;61.69;99348.63;5113436;28;20198;-79
2022/07/24 09:59:02;;;;;;;4.85;4.40;;;;;;;28.41;60.93;99352.41;5105244;28;20206;-78
2022/07/24 10:01:32;;;;;;;4.40;4.00;;;;;;;28.48;60.67;99347.81;5110863;28;20369;-78
2022/07/24 10:04:01;;;;;;;4.57;4.13;;;;;;;28.92;58.44;99349.91;5105587;28;20213;-79
2022/07/24 10:06:30;;;;;;;4.60;4.18;;;;;;;28.35;61.02;99343.16;5112611;28;20265;-79
2022/07/24 10:08:58;;;;;;;4.95;4.07;;;;;;;27.88;63.69;99344.09;5112345;28;20198;-78
2022/07/24 10:11:27;;;;;;;4.82;4.20;;;;;;;28.45;60.61;99340.88;5109020;28;20207;-79
2022/07/24 10:13:59;;;;;;;5.10;4.40;;;;;;;28.25;61.93;99337.25;5110198;28;20191;-78
2022/07/24 10:16:33;;;;;;;5.65;4.63;;;;;;;28.64;59.21;99335.63;5108270;28;20282;-79
2022/07/24 10:19:04;;;;;;;4.55;4.13;;;;;;;29.14;56.87;99341.44;5050548;28;20205;-79
2022/07/24 10:21:34;;;;;;;4.38;3.97;;;;;;;28.14;60.00;99341.44;5045896;28;20307;-78
2022/07/24 10:24:32;;;;;;;4.85;4.28;;;;;;;28.75;58.80;99326.81;5046654;28;20272;-79
2022/07/24 10:27:05;;;;;;;5.55;4.03;;;;;;;28.34;57.98;99324.31;5050553;28;20232;-79
2022/07/24 10:29:36;;;;;;;4.57;4.13;;;;;;;29.00;54.64;99316.09;5047805;28;20213;-79
2022/07/24 10:32:06;;;;;;;5.07;4.57;;;;;;;29.29;52.70;99312.88;5046541;28;20203;-79
2022/07/24 10:34:41;;;;;;;4.97;4.45;;;;;;;28.36;56.18;99316.75;5048363;28;20231;-79
2022/07/24 10:37:19;;;;;;;5.25;4.40;;;;;;;28.89;55.22;99316.75;5081775;28;20201;-79
2022/07/24 10:40:00;;;;;;;6.03;4.50;;;;;;;28.94;54.62;99322.41;5117333;27;20248;-79
2022/07/24 10:42:28;;;;;;;5.88;4.30;;;;;;;29.45;54.12;99310.72;5117181;28;20187;-79
2022/07/24 10:45:22;;;;;;;5.38;4.63;;;;;;;29.32;53.22;99323.34;5117199;28;20274;-78
2022/07/24 10:47:58;;;;;;;4.50;4.10;;;;;;;30.27;49.66;99312.59;5099039;28;20195;-79
2022/07/24 10:51:03;;;;;;;5.38;4.18;;;;;;;30.49;48.54;99296.63;5113559;28;20226;-79
2022/07/24 10:53:49;;;;;;;5.05;4.18;;;;;;;30.29;48.48;99302.28;5115441;28;20203;-79
2022/07/24 10:56:19;;;;;;;5.40;4.32;;;;;;;30.19;48.30;99310.13;5119479;27;20198;-79
2022/07/24 10:58:57;;;;;;;5.28;4.13;;;;;;;30.08;49.25;99303.47;5117234;27;20258;-79
2022/07/24 11:01:39;;;;;;;4.95;4.45;;;;;;;29.61;50.21;99311.06;5116969;28;20661;-79
2022/07/24 11:04:29;;;;;;;5.38;4.32;;;;;;;30.93;46.84;99292.88;5116580;28;20223;-79
2022/07/24 11:07:08;;;;;;;5.30;4.80;;;;;;;30.14;48.24;99288.09;5112529;28;20599;-79
2022/07/24 11:09:55;;;;;;;4.57;4.13;;;;;;;29.69;50.07;99279.13;5114485;27;20203;-79
2022/07/24 11:12:29;;;;;;;5.22;4.72;;;;;;;29.65;50.05;99281.47;5117016;28;20650;-79
2022/07/24 11:15:53;;;;;;;4.82;4.32;;;;;;;29.82;50.06;99277.16;5116465;28;20273;-79
2022/07/24 11:17:50;;;;;;;4.90;4.30;;;;;;;30.04;50.15;99277.63;5116657;28;20191;-79
2022/07/24 11:20:20;;;;;;;4.60;4.10;;;;;;;31.14;46.73;99266.97;5116705;28;20322;-79
2022/07/24 11:22:50;;;;;;;4.22;3.83;;;;;;;31.63;44.81;99267.84;5113404;28;20214;-79
2022/07/24 11:25:21;;;;;;;4.63;4.13;;;;;;;32.28;43.38;99267.09;5113767;28;20199;-79
2022/07/24 11:28:22;;;;;;;4.78;3.85;;;;;;;31.21;45.50;99264.19;5116446;28;20203;-79
2022/07/24 11:30:50;;;;;;;4.63;4.22;;;;;;;32.04;43.29;99264.31;5116358;28;20681;-79
2022/07/24 11:33:22;;;;;;;6.13;4.10;;;;;;;31.68;44.81;99253.44;5112570;28;20193;-79
2022/07/24 11:35:50;;;;;;;5.80;4.22;;;;;;;31.56;46.17;99256.16;5116103;28;20205;-79
2022/07/24 11:38:19;;;;;;;6.30;3.90;;;;;;;31.97;43.49;99252.63;5116672;28;20202;-79
2022/07/24 11:41:05;;;;;;;5.07;3.95;;;;;;;31.24;45.66;99250.88;5078735;28;20191;-79